sensor_id;sensor_type;location;lat;lon;timestamp;pressure;altitude;pressure_sealevel;temperature
71564;BMP180;59391;52.504;13.438;2023-02-01T00:00:29;100627.00;;;8.50
71564;BMP180;59391;52.504;13.438;2023-02-01T00:02:55;100662.00;;;8.50
71564;BMP180;59391;52.504;13.438;2023-02-01T00:05:21;100629.00;;;8.50
71564;BMP180;59391;52.504;13.438;2023-02-01T00:07:49;100651.00;;;8.60
71564;BMP180;59391;52.504;13.438;2023-02-01T00:10:16;100663.00;;;8.60
71564;BMP180;59391;52.504;13.438;2023-02-01T00:12:41;100663.00;;;8.60
71564;BMP180;59391;52.504;13.438;2023-02-01T00:15:08;100625.00;;;8.60
71564;BMP180;59391;52.504;13.438;2023-02-01T00:17:33;100672.00;;;8.60
71564;BMP180;59391;52.504;13.438;2023-02-01T00:19:59;100663.00;;;8.60
71564;BMP180;59391;52.504;13.438;2023-02-01T00:22:25;100630.00;;;8.60
71564;BMP180;59391;52.504;13.438;2023-02-01T00:24:50;100679.00;;;8.60
71564;BMP180;59391;52.504;13.438;2023-02-01T00:27:16;100660.00;;;8.50
71564;BMP180;59391;52.504;13.438;2023-02-01T00:29:45;100670.00;;;8.50
71564;BMP180;59391;52.504;13.438;2023-02-01T00:32:14;100655.00;;;8.60
71564;BMP180;59391;52.504;13.438;2023-02-01T00:34:39;100645.00;;;8.60
71564;BMP180;59391;52.504;13.438;2023-02-01T00:37:05;100674.00;;;8.70
71564;BMP180;59391;52.504;13.438;2023-02-01T00:39:31;100667.00;;;8.70
71564;BMP180;59391;52.504;13.438;2023-02-01T00:41:57;100655.00;;;8.70
71564;BMP180;59391;52.504;13.438;2023-02-01T00:44:22;100654.00;;;8.70
71564;BMP180;59391;52.504;13.438;2023-02-01T00:46:48;100648.00;;;8.60
71564;BMP180;59391;52.504;13.438;2023-02-01T00:49:14;100655.00;;;8.50
71564;BMP180;59391;52.504;13.438;2023-02-01T00:51:39;100673.00;;;8.50
71564;BMP180;59391;52.504;13.438;2023-02-01T00:54:05;100669.00;;;8.60
71564;BMP180;59391;52.504;13.438;2023-02-01T00:56:31;100631.00;;;8.60
71564;BMP180;59391;52.504;13.438;2023-02-01T00:58:56;100673.00;;;8.60
71564;BMP180;59391;52.504;13.438;2023-02-01T01:01:26;100674.00;;;8.60
71564;BMP180;59391;52.504;13.438;2023-02-01T01:03:56;100636.00;;;8.60
71564;BMP180;59391;52.504;13.438;2023-02-01T01:06:27;100683.00;;;8.60
71564;BMP180;59391;52.504;13.438;2023-02-01T01:08:55;100683.00;;;8.60
71564;BMP180;59391;52.504;13.438;2023-02-01T01:11:28;100674.00;;;8.60
71564;BMP180;59391;52.504;13.438;2023-02-01T01:13:56;100674.00;;;8.60
71564;BMP180;59391;52.504;13.438;2023-02-01T01:16:25;100662.00;;;8.50
71564;BMP180;59391;52.504;13.438;2023-02-01T01:18:52;100681.00;;;8.50
71564;BMP180;59391;52.504;13.438;2023-02-01T01:21:19;100667.00;;;8.50
71564;BMP180;59391;52.504;13.438;2023-02-01T01:23:46;100666.00;;;8.50
71564;BMP180;59391;52.504;13.438;2023-02-01T01:26:19;100617.00;;;8.50
71564;BMP180;59391;52.504;13.438;2023-02-01T01:28:46;100644.00;;;8.50
71564;BMP180;59391;52.504;13.438;2023-02-01T01:31:15;100626.00;;;8.50
71564;BMP180;59391;52.504;13.438;2023-02-01T01:33:40;100655.00;;;8.50
71564;BMP180;59391;52.504;13.438;2023-02-01T01:36:08;100642.00;;;8.50
71564;BMP180;59391;52.504;13.438;2023-02-01T01:38:41;100636.00;;;8.50
71564;BMP180;59391;52.504;13.438;2023-02-01T01:41:09;100628.00;;;8.50
71564;BMP180;59391;52.504;13.438;2023-02-01T01:44:05;100630.00;;;8.50
71564;BMP180;59391;52.504;13.438;2023-02-01T01:46:38;100623.00;;;8.40
71564;BMP180;59391;52.504;13.438;2023-02-01T01:49:21;100627.00;;;8.50
71564;BMP180;59391;52.504;13.438;2023-02-01T01:51:59;100653.00;;;8.40
71564;BMP180;59391;52.504;13.438;2023-02-01T01:54:35;100600.00;;;8.50
71564;BMP180;59391;52.504;13.438;2023-02-01T01:57:09;100603.00;;;8.50
71564;BMP180;59391;52.504;13.438;2023-02-01T01:59:38;100635.00;;;8.50
71564;BMP180;59391;52.504;13.438;2023-02-01T02:02:05;100631.00;;;8.50
71564;BMP180;59391;52.504;13.438;2023-02-01T02:04:33;100625.00;;;8.50
71564;BMP180;59391;52.504;13.438;2023-02-01T02:07:10;100617.00;;;8.50
71564;BMP180;59391;52.504;13.438;2023-02-01T02:09:38;100623.00;;;8.60
71564;BMP180;59391;52.504;13.438;2023-02-01T02:12:04;100625.00;;;8.60
71564;BMP180;59391;52.504;13.438;2023-02-01T02:14:30;100599.00;;;8.50
71564;BMP180;59391;52.504;13.438;2023-02-01T02:20:46;100658.00;;;8.50
71564;BMP180;59391;52.504;13.438;2023-02-01T02:23:55;100636.00;;;8.60
71564;BMP180;59391;52.504;13.438;2023-02-01T02:26:38;100634.00;;;8.60
71564;BMP180;59391;52.504;13.438;2023-02-01T02:36:42;100625.00;;;8.60
71564;BMP180;59391;52.504;13.438;2023-02-01T02:39:35;100631.00;;;8.60
71564;BMP180;59391;52.504;13.438;2023-02-01T02:42:14;100607.00;;;8.60
71564;BMP180;59391;52.504;13.438;2023-02-01T02:45:25;100599.00;;;8.60
71564;BMP180;59391;52.504;13.438;2023-02-01T02:48:21;100609.00;;;8.60
71564;BMP180;59391;52.504;13.438;2023-02-01T02:51:05;100623.00;;;8.60
71564;BMP180;59391;52.504;13.438;2023-02-01T02:54:16;100613.00;;;8.60
71564;BMP180;59391;52.504;13.438;2023-02-01T02:57:06;100635.00;;;8.60
71564;BMP180;59391;52.504;13.438;2023-02-01T02:59:52;100610.00;;;8.60
71564;BMP180;59391;52.504;13.438;2023-02-01T03:02:39;100553.00;;;8.60
71564;BMP180;59391;52.504;13.438;2023-02-01T03:05:36;100606.00;;;8.70
71564;BMP180;59391;52.504;13.438;2023-02-01T03:08:18;100610.00;;;8.70
71564;BMP180;59391;52.504;13.438;2023-02-01T03:11:05;100612.00;;;8.70
71564;BMP180;59391;52.504;13.438;2023-02-01T03:13:38;100607.00;;;8.70
71564;BMP180;59391;52.504;13.438;2023-02-01T03:16:20;100613.00;;;8.70
71564;BMP180;59391;52.504;13.438;2023-02-01T03:19:22;100596.00;;;8.80
71564;BMP180;59391;52.504;13.438;2023-02-01T03:22:12;100601.00;;;8.80
71564;BMP180;59391;52.504;13.438;2023-02-01T03:24:52;100570.00;;;8.70
71564;BMP180;59391;52.504;13.438;2023-02-01T03:27:32;100581.00;;;8.60
71564;BMP180;59391;52.504;13.438;2023-02-01T03:30:11;100578.00;;;8.80
71564;BMP180;59391;52.504;13.438;2023-02-01T03:32:46;100536.00;;;8.70
71564;BMP180;59391;52.504;13.438;2023-02-01T03:35:57;100551.00;;;8.70
71564;BMP180;59391;52.504;13.438;2023-02-01T03:39:00;100543.00;;;8.60
71564;BMP180;59391;52.504;13.438;2023-02-01T03:41:50;100550.00;;;8.80
71564;BMP180;59391;52.504;13.438;2023-02-01T03:44:24;100544.00;;;8.70
71564;BMP180;59391;52.504;13.438;2023-02-01T03:46:57;100540.00;;;8.70
71564;BMP180;59391;52.504;13.438;2023-02-01T03:49:30;100556.00;;;8.70
71564;BMP180;59391;52.504;13.438;2023-02-01T03:51:59;100513.00;;;8.80
71564;BMP180;59391;52.504;13.438;2023-02-01T03:54:28;100514.00;;;8.70
71564;BMP180;59391;52.504;13.438;2023-02-01T03:56:57;100543.00;;;8.80
71564;BMP180;59391;52.504;13.438;2023-02-01T03:59:24;100532.00;;;8.80
71564;BMP180;59391;52.504;13.438;2023-02-01T04:01:50;100520.00;;;8.80
71564;BMP180;59391;52.504;13.438;2023-02-01T04:04:16;100550.00;;;8.80
71564;BMP180;59391;52.504;13.438;2023-02-01T04:06:47;100542.00;;;8.80
71564;BMP180;59391;52.504;13.438;2023-02-01T04:09:13;100549.00;;;8.90
71564;BMP180;59391;52.504;13.438;2023-02-01T04:11:39;100553.00;;;8.90
71564;BMP180;59391;52.504;13.438;2023-02-01T04:14:05;100501.00;;;9.00
71564;BMP180;59391;52.504;13.438;2023-02-01T04:16:32;100539.00;;;9.00
71564;BMP180;59391;52.504;13.438;2023-02-01T04:18:58;100547.00;;;9.00
71564;BMP180;59391;52.504;13.438;2023-02-01T04:21:25;100549.00;;;9.10
71564;BMP180;59391;52.504;13.438;2023-02-01T04:23:52;100540.00;;;9.00
71564;BMP180;59391;52.504;13.438;2023-02-01T04:26:19;100541.00;;;9.10
71564;BMP180;59391;52.504;13.438;2023-02-01T04:28:46;100547.00;;;9.10
71564;BMP180;59391;52.504;13.438;2023-02-01T04:31:16;100549.00;;;9.10
71564;BMP180;59391;52.504;13.438;2023-02-01T04:33:42;100534.00;;;9.20
71564;BMP180;59391;52.504;13.438;2023-02-01T04:36:09;100550.00;;;9.20
71564;BMP180;59391;52.504;13.438;2023-02-01T04:38:38;100535.00;;;9.20
71564;BMP180;59391;52.504;13.438;2023-02-01T04:41:04;100528.00;;;9.20
71564;BMP180;59391;52.504;13.438;2023-02-01T04:43:29;100535.00;;;9.20
71564;BMP180;59391;52.504;13.438;2023-02-01T04:45:55;100507.00;;;9.30
71564;BMP180;59391;52.504;13.438;2023-02-01T04:48:21;100555.00;;;9.40
71564;BMP180;59391;52.504;13.438;2023-02-01T04:50:48;100530.00;;;9.40
71564;BMP180;59391;52.504;13.438;2023-02-01T04:53:17;100542.00;;;9.40
71564;BMP180;59391;52.504;13.438;2023-02-01T04:55:44;100543.00;;;9.30
71564;BMP180;59391;52.504;13.438;2023-02-01T04:58:10;100553.00;;;9.40
71564;BMP180;59391;52.504;13.438;2023-02-01T05:00:37;100530.00;;;9.40
71564;BMP180;59391;52.504;13.438;2023-02-01T05:03:03;100474.00;;;9.40
71564;BMP180;59391;52.504;13.438;2023-02-01T05:05:29;100521.00;;;9.50
71564;BMP180;59391;52.504;13.438;2023-02-01T05:07:55;100502.00;;;9.50
71564;BMP180;59391;52.504;13.438;2023-02-01T05:10:21;100515.00;;;9.50
71564;BMP180;59391;52.504;13.438;2023-02-01T05:12:47;100516.00;;;9.50
71564;BMP180;59391;52.504;13.438;2023-02-01T05:15:31;100517.00;;;9.60
71564;BMP180;59391;52.504;13.438;2023-02-01T05:17:57;100517.00;;;9.50
71564;BMP180;59391;52.504;13.438;2023-02-01T05:20:24;100496.00;;;9.60
71564;BMP180;59391;52.504;13.438;2023-02-01T05:22:50;100520.00;;;9.60
71564;BMP180;59391;52.504;13.438;2023-02-01T05:25:16;100502.00;;;9.60
71564;BMP180;59391;52.504;13.438;2023-02-01T05:27:42;100486.00;;;9.60
71564;BMP180;59391;52.504;13.438;2023-02-01T05:30:09;100483.00;;;9.70
71564;BMP180;59391;52.504;13.438;2023-02-01T05:32:35;100491.00;;;9.60
71564;BMP180;59391;52.504;13.438;2023-02-01T05:35:01;100481.00;;;9.60
71564;BMP180;59391;52.504;13.438;2023-02-01T05:37:27;100491.00;;;9.80
71564;BMP180;59391;52.504;13.438;2023-02-01T05:39:53;100460.00;;;9.80
71564;BMP180;59391;52.504;13.438;2023-02-01T05:42:19;100487.00;;;9.70
71564;BMP180;59391;52.504;13.438;2023-02-01T05:44:44;100496.00;;;9.60
71564;BMP180;59391;52.504;13.438;2023-02-01T05:47:14;100492.00;;;9.70
71564;BMP180;59391;52.504;13.438;2023-02-01T05:54:38;100489.00;;;9.40
71564;BMP180;59391;52.504;13.438;2023-02-01T05:57:16;100354.00;;;9.60
71564;BMP180;59391;52.504;13.438;2023-02-01T05:59:42;100404.00;;;9.40
71564;BMP180;59391;52.504;13.438;2023-02-01T06:02:14;100497.00;;;9.70
71564;BMP180;59391;52.504;13.438;2023-02-01T06:04:42;100480.00;;;9.60
71564;BMP180;59391;52.504;13.438;2023-02-01T06:07:14;100488.00;;;9.70
71564;BMP180;59391;52.504;13.438;2023-02-01T06:09:45;100478.00;;;9.60
71564;BMP180;59391;52.504;13.438;2023-02-01T06:12:14;100436.00;;;9.60
71564;BMP180;59391;52.504;13.438;2023-02-01T06:15:03;100426.00;;;9.60
71564;BMP180;59391;52.504;13.438;2023-02-01T06:17:29;100433.00;;;9.60
71564;BMP180;59391;52.504;13.438;2023-02-01T06:19:57;100474.00;;;9.60
71564;BMP180;59391;52.504;13.438;2023-02-01T06:22:25;100480.00;;;9.60
71564;BMP180;59391;52.504;13.438;2023-02-01T06:24:54;100496.00;;;9.60
71564;BMP180;59391;52.504;13.438;2023-02-01T06:27:20;100401.00;;;9.40
71564;BMP180;59391;52.504;13.438;2023-02-01T06:29:46;100481.00;;;9.30
71564;BMP180;59391;52.504;13.438;2023-02-01T06:32:11;100466.00;;;9.20
71564;BMP180;59391;52.504;13.438;2023-02-01T06:34:37;100420.00;;;9.30
71564;BMP180;59391;52.504;13.438;2023-02-01T06:37:33;100394.00;;;9.10
71564;BMP180;59391;52.504;13.438;2023-02-01T06:43:24;100465.00;;;9.20
71564;BMP180;59391;52.504;13.438;2023-02-01T06:45:51;100463.00;;;9.20
71564;BMP180;59391;52.504;13.438;2023-02-01T06:48:18;100468.00;;;9.10
71564;BMP180;59391;52.504;13.438;2023-02-01T06:50:44;100464.00;;;9.20
71564;BMP180;59391;52.504;13.438;2023-02-01T06:53:10;100409.00;;;9.10
71564;BMP180;59391;52.504;13.438;2023-02-01T06:55:36;100441.00;;;9.20
71564;BMP180;59391;52.504;13.438;2023-02-01T06:58:02;100434.00;;;9.20
71564;BMP180;59391;52.504;13.438;2023-02-01T07:00:29;100453.00;;;9.20
71564;BMP180;59391;52.504;13.438;2023-02-01T07:02:57;100445.00;;;9.10
71564;BMP180;59391;52.504;13.438;2023-02-01T07:05:23;100437.00;;;9.20
71564;BMP180;59391;52.504;13.438;2023-02-01T07:07:49;100435.00;;;9.20
71564;BMP180;59391;52.504;13.438;2023-02-01T07:10:15;100442.00;;;9.20
71564;BMP180;59391;52.504;13.438;2023-02-01T07:12:40;100451.00;;;9.30
71564;BMP180;59391;52.504;13.438;2023-02-01T07:15:07;100426.00;;;9.30
71564;BMP180;59391;52.504;13.438;2023-02-01T07:17:32;100442.00;;;9.30
71564;BMP180;59391;52.504;13.438;2023-02-01T07:19:58;100440.00;;;9.20
71564;BMP180;59391;52.504;13.438;2023-02-01T07:22:28;100433.00;;;9.20
71564;BMP180;59391;52.504;13.438;2023-02-01T07:24:54;100377.00;;;9.20
71564;BMP180;59391;52.504;13.438;2023-02-01T07:27:20;100399.00;;;9.20
71564;BMP180;59391;52.504;13.438;2023-02-01T07:29:46;100423.00;;;9.10
71564;BMP180;59391;52.504;13.438;2023-02-01T07:32:11;100371.00;;;9.10
71564;BMP180;59391;52.504;13.438;2023-02-01T07:34:37;100408.00;;;9.00
71564;BMP180;59391;52.504;13.438;2023-02-01T07:37:05;100393.00;;;9.00
71564;BMP180;59391;52.504;13.438;2023-02-01T07:39:31;100397.00;;;9.00
71564;BMP180;59391;52.504;13.438;2023-02-01T07:41:57;100399.00;;;9.00
71564;BMP180;59391;52.504;13.438;2023-02-01T07:44:23;100404.00;;;9.20
71564;BMP180;59391;52.504;13.438;2023-02-01T07:46:49;100393.00;;;9.20
71564;BMP180;59391;52.504;13.438;2023-02-01T07:49:15;100412.00;;;9.10
71564;BMP180;59391;52.504;13.438;2023-02-01T07:51:43;100386.00;;;9.10
71564;BMP180;59391;52.504;13.438;2023-02-01T07:54:11;100415.00;;;9.00
71564;BMP180;59391;52.504;13.438;2023-02-01T07:56:36;100392.00;;;8.90
71564;BMP180;59391;52.504;13.438;2023-02-01T07:59:02;100399.00;;;8.80
71564;BMP180;59391;52.504;13.438;2023-02-01T08:01:31;100407.00;;;8.70
71564;BMP180;59391;52.504;13.438;2023-02-01T08:04:03;100415.00;;;8.60
71564;BMP180;59391;52.504;13.438;2023-02-01T08:06:32;100413.00;;;8.60
71564;BMP180;59391;52.504;13.438;2023-02-01T08:09:00;100415.00;;;8.30
71564;BMP180;59391;52.504;13.438;2023-02-01T08:11:27;100390.00;;;8.40
71564;BMP180;59391;52.504;13.438;2023-02-01T08:13:53;100386.00;;;8.30
71564;BMP180;59391;52.504;13.438;2023-02-01T08:16:19;100406.00;;;8.20
71564;BMP180;59391;52.504;13.438;2023-02-01T08:18:45;100395.00;;;8.00
71564;BMP180;59391;52.504;13.438;2023-02-01T08:21:16;100393.00;;;8.00
71564;BMP180;59391;52.504;13.438;2023-02-01T08:23:42;100380.00;;;7.90
71564;BMP180;59391;52.504;13.438;2023-02-01T08:26:21;100407.00;;;7.90
71564;BMP180;59391;52.504;13.438;2023-02-01T08:28:54;100394.00;;;7.80
71564;BMP180;59391;52.504;13.438;2023-02-01T08:31:22;100404.00;;;7.80
71564;BMP180;59391;52.504;13.438;2023-02-01T08:33:56;100431.00;;;7.80
71564;BMP180;59391;52.504;13.438;2023-02-01T08:36:24;100417.00;;;7.80
71564;BMP180;59391;52.504;13.438;2023-02-01T08:38:50;100407.00;;;7.80
71564;BMP180;59391;52.504;13.438;2023-02-01T08:41:19;100415.00;;;7.70
71564;BMP180;59391;52.504;13.438;2023-02-01T08:43:46;100413.00;;;7.70
71564;BMP180;59391;52.504;13.438;2023-02-01T08:46:16;100417.00;;;7.70
71564;BMP180;59391;52.504;13.438;2023-02-01T08:48:42;100426.00;;;7.60
71564;BMP180;59391;52.504;13.438;2023-02-01T08:51:11;100417.00;;;7.70
71564;BMP180;59391;52.504;13.438;2023-02-01T08:53:38;100420.00;;;7.70
71564;BMP180;59391;52.504;13.438;2023-02-01T08:56:05;100427.00;;;7.70
71564;BMP180;59391;52.504;13.438;2023-02-01T08:58:32;100420.00;;;7.80
71564;BMP180;59391;52.504;13.438;2023-02-01T09:01:07;100411.00;;;7.80
71564;BMP180;59391;52.504;13.438;2023-02-01T09:03:33;100430.00;;;7.80
71564;BMP180;59391;52.504;13.438;2023-02-01T09:06:11;100433.00;;;7.80
71564;BMP180;59391;52.504;13.438;2023-02-01T09:08:39;100453.00;;;7.80
71564;BMP180;59391;52.504;13.438;2023-02-01T09:11:13;100449.00;;;7.80
71564;BMP180;59391;52.504;13.438;2023-02-01T09:13:39;100433.00;;;7.80
71564;BMP180;59391;52.504;13.438;2023-02-01T09:16:05;100428.00;;;7.80
71564;BMP180;59391;52.504;13.438;2023-02-01T09:18:31;100438.00;;;7.80
71564;BMP180;59391;52.504;13.438;2023-02-01T09:20:57;100441.00;;;7.80
71564;BMP180;59391;52.504;13.438;2023-02-01T09:23:22;100438.00;;;7.80
71564;BMP180;59391;52.504;13.438;2023-02-01T09:25:48;100463.00;;;7.80
71564;BMP180;59391;52.504;13.438;2023-02-01T09:28:17;100464.00;;;7.90
71564;BMP180;59391;52.504;13.438;2023-02-01T09:30:43;100461.00;;;7.90
71564;BMP180;59391;52.504;13.438;2023-02-01T09:33:08;100467.00;;;7.90
71564;BMP180;59391;52.504;13.438;2023-02-01T09:35:34;100421.00;;;7.90
71564;BMP180;59391;52.504;13.438;2023-02-01T09:38:00;100477.00;;;8.00
71564;BMP180;59391;52.504;13.438;2023-02-01T09:40:26;100451.00;;;8.00
71564;BMP180;59391;52.504;13.438;2023-02-01T09:43:18;100471.00;;;8.00
71564;BMP180;59391;52.504;13.438;2023-02-01T09:46:26;100494.00;;;8.10
71564;BMP180;59391;52.504;13.438;2023-02-01T09:49:00;100521.00;;;8.10
71564;BMP180;59391;52.504;13.438;2023-02-01T09:51:34;100493.00;;;8.10
71564;BMP180;59391;52.504;13.438;2023-02-01T09:54:17;100498.00;;;8.20
71564;BMP180;59391;52.504;13.438;2023-02-01T09:56:58;100487.00;;;8.20
71564;BMP180;59391;52.504;13.438;2023-02-01T10:00:04;100488.00;;;8.30
71564;BMP180;59391;52.504;13.438;2023-02-01T10:02:38;100498.00;;;8.20
71564;BMP180;59391;52.504;13.438;2023-02-01T10:05:05;100502.00;;;8.30
71564;BMP180;59391;52.504;13.438;2023-02-01T10:08:05;100448.00;;;8.30
71564;BMP180;59391;52.504;13.438;2023-02-01T10:10:49;100497.00;;;8.20
71564;BMP180;59391;52.504;13.438;2023-02-01T10:16:10;100486.00;;;8.10
71564;BMP180;59391;52.504;13.438;2023-02-01T10:19:01;100497.00;;;8.10
71564;BMP180;59391;52.504;13.438;2023-02-01T10:21:59;100489.00;;;8.10
71564;BMP180;59391;52.504;13.438;2023-02-01T10:24:39;100479.00;;;8.10
71564;BMP180;59391;52.504;13.438;2023-02-01T10:27:23;100504.00;;;8.10
71564;BMP180;59391;52.504;13.438;2023-02-01T10:30:05;100498.00;;;8.10
71564;BMP180;59391;52.504;13.438;2023-02-01T10:32:35;100489.00;;;8.10
71564;BMP180;59391;52.504;13.438;2023-02-01T10:35:16;100496.00;;;8.10
71564;BMP180;59391;52.504;13.438;2023-02-01T10:37:44;100489.00;;;8.20
71564;BMP180;59391;52.504;13.438;2023-02-01T10:40:24;100525.00;;;8.20
71564;BMP180;59391;52.504;13.438;2023-02-01T10:43:00;100501.00;;;8.20
71564;BMP180;59391;52.504;13.438;2023-02-01T10:45:30;100510.00;;;8.30
71564;BMP180;59391;52.504;13.438;2023-02-01T10:47:58;100490.00;;;8.30
71564;BMP180;59391;52.504;13.438;2023-02-01T10:50:38;100519.00;;;8.30
71564;BMP180;59391;52.504;13.438;2023-02-01T10:58:29;100515.00;;;8.20
71564;BMP180;59391;52.504;13.438;2023-02-01T11:01:04;100510.00;;;8.20
71564;BMP180;59391;52.504;13.438;2023-02-01T11:03:55;100509.00;;;8.20
71564;BMP180;59391;52.504;13.438;2023-02-01T11:06:42;100508.00;;;8.10
71564;BMP180;59391;52.504;13.438;2023-02-01T11:14:38;100480.00;;;8.40
71564;BMP180;59391;52.504;13.438;2023-02-01T11:20:00;100474.00;;;8.60
71564;BMP180;59391;52.504;13.438;2023-02-01T11:22:27;100485.00;;;8.60
71564;BMP180;59391;52.504;13.438;2023-02-01T11:24:56;100478.00;;;8.60
71564;BMP180;59391;52.504;13.438;2023-02-01T11:27:24;100462.00;;;8.60
71564;BMP180;59391;52.504;13.438;2023-02-01T11:29:56;100471.00;;;8.60
71564;BMP180;59391;52.504;13.438;2023-02-01T11:32:24;100448.00;;;8.80
71564;BMP180;59391;52.504;13.438;2023-02-01T11:35:00;100449.00;;;8.90
71564;BMP180;59391;52.504;13.438;2023-02-01T11:37:38;100450.00;;;8.90
71564;BMP180;59391;52.504;13.438;2023-02-01T11:43:14;100447.00;;;9.40
71564;BMP180;59391;52.504;13.438;2023-02-01T11:45:40;100450.00;;;9.40
71564;BMP180;59391;52.504;13.438;2023-02-01T11:48:17;100430.00;;;9.40
71564;BMP180;59391;52.504;13.438;2023-02-01T11:51:19;100428.00;;;9.40
71564;BMP180;59391;52.504;13.438;2023-02-01T11:56:59;100458.00;;;9.60
71564;BMP180;59391;52.504;13.438;2023-02-01T11:59:54;100437.00;;;9.80
71564;BMP180;59391;52.504;13.438;2023-02-01T12:03:31;100434.00;;;10.00
71564;BMP180;59391;52.504;13.438;2023-02-01T12:09:04;100433.00;;;10.00
71564;BMP180;59391;52.504;13.438;2023-02-01T12:14:56;100414.00;;;10.40
71564;BMP180;59391;52.504;13.438;2023-02-01T12:18:01;100420.00;;;10.60
71564;BMP180;59391;52.504;13.438;2023-02-01T12:21:16;100404.00;;;10.40
71564;BMP180;59391;52.504;13.438;2023-02-01T12:24:37;100401.00;;;10.40
71564;BMP180;59391;52.504;13.438;2023-02-01T12:27:42;100388.00;;;10.30
71564;BMP180;59391;52.504;13.438;2023-02-01T12:33:35;100386.00;;;10.30
71564;BMP180;59391;52.504;13.438;2023-02-01T12:36:36;100378.00;;;10.30
71564;BMP180;59391;52.504;13.438;2023-02-01T12:39:22;100376.00;;;10.20
71564;BMP180;59391;52.504;13.438;2023-02-01T12:42:03;100374.00;;;10.20
71564;BMP180;59391;52.504;13.438;2023-02-01T12:44:56;100359.00;;;10.20
71564;BMP180;59391;52.504;13.438;2023-02-01T12:47:33;100390.00;;;10.10
71564;BMP180;59391;52.504;13.438;2023-02-01T12:52:51;100347.00;;;10.10
71564;BMP180;59391;52.504;13.438;2023-02-01T12:58:27;100321.00;;;10.10
71564;BMP180;59391;52.504;13.438;2023-02-01T13:01:12;100347.00;;;10.20
71564;BMP180;59391;52.504;13.438;2023-02-01T13:04:20;100330.00;;;10.20
71564;BMP180;59391;52.504;13.438;2023-02-01T13:07:19;100340.00;;;10.20
71564;BMP180;59391;52.504;13.438;2023-02-01T13:09:56;100287.00;;;10.30
71564;BMP180;59391;52.504;13.438;2023-02-01T13:12:40;100248.00;;;10.10
71564;BMP180;59391;52.504;13.438;2023-02-01T13:15:28;100334.00;;;10.40
71564;BMP180;59391;52.504;13.438;2023-02-01T13:18:02;100310.00;;;10.30
71564;BMP180;59391;52.504;13.438;2023-02-01T13:21:07;100335.00;;;10.20
71564;BMP180;59391;52.504;13.438;2023-02-01T13:23:40;100367.00;;;10.30
71564;BMP180;59391;52.504;13.438;2023-02-01T13:26:14;100305.00;;;10.20
71564;BMP180;59391;52.504;13.438;2023-02-01T13:29:06;100335.00;;;10.00
71564;BMP180;59391;52.504;13.438;2023-02-01T13:41:08;100347.00;;;10.40
71564;BMP180;59391;52.504;13.438;2023-02-01T13:44:45;100290.00;;;10.30
71564;BMP180;59391;52.504;13.438;2023-02-01T13:54:46;100335.00;;;10.30
71564;BMP180;59391;52.504;13.438;2023-02-01T13:57:37;100343.00;;;10.40
71564;BMP180;59391;52.504;13.438;2023-02-01T14:00:39;100315.00;;;10.40
71564;BMP180;59391;52.504;13.438;2023-02-01T14:04:00;100308.00;;;10.50
71564;BMP180;59391;52.504;13.438;2023-02-01T14:09:35;100312.00;;;10.40
71564;BMP180;59391;52.504;13.438;2023-02-01T14:12:43;100311.00;;;10.50
71564;BMP180;59391;52.504;13.438;2023-02-01T14:15:30;100257.00;;;10.50
71564;BMP180;59391;52.504;13.438;2023-02-01T14:21:31;100226.00;;;10.10
71564;BMP180;59391;52.504;13.438;2023-02-01T14:27:28;100276.00;;;9.90
71564;BMP180;59391;52.504;13.438;2023-02-01T14:30:17;100290.00;;;9.80
71564;BMP180;59391;52.504;13.438;2023-02-01T14:33:19;100277.00;;;9.80
71564;BMP180;59391;52.504;13.438;2023-02-01T14:36:13;100280.00;;;9.70
71564;BMP180;59391;52.504;13.438;2023-02-01T14:38:58;100216.00;;;9.70
71564;BMP180;59391;52.504;13.438;2023-02-01T14:41:34;100224.00;;;9.70
71564;BMP180;59391;52.504;13.438;2023-02-01T14:59:12;100254.00;;;9.70
71564;BMP180;59391;52.504;13.438;2023-02-01T15:05:43;100211.00;;;9.70
71564;BMP180;59391;52.504;13.438;2023-02-01T15:08:55;100183.00;;;9.90
71564;BMP180;59391;52.504;13.438;2023-02-01T15:11:21;100198.00;;;10.00
71564;BMP180;59391;52.504;13.438;2023-02-01T15:13:52;100199.00;;;10.00
71564;BMP180;59391;52.504;13.438;2023-02-01T15:16:58;100255.00;;;9.70
71564;BMP180;59391;52.504;13.438;2023-02-01T15:19:35;100258.00;;;9.60
71564;BMP180;59391;52.504;13.438;2023-02-01T15:22:41;100197.00;;;9.20
71564;BMP180;59391;52.504;13.438;2023-02-01T15:25:33;100240.00;;;9.10
71564;BMP180;59391;52.504;13.438;2023-02-01T15:28:00;100239.00;;;9.10
71564;BMP180;59391;52.504;13.438;2023-02-01T15:30:32;100188.00;;;9.10
71564;BMP180;59391;52.504;13.438;2023-02-01T15:36:06;100191.00;;;8.80
71564;BMP180;59391;52.504;13.438;2023-02-01T15:41:15;100262.00;;;8.50
71564;BMP180;59391;52.504;13.438;2023-02-01T15:46:40;100258.00;;;8.30
71564;BMP180;59391;52.504;13.438;2023-02-01T15:49:37;100240.00;;;8.20
71564;BMP180;59391;52.504;13.438;2023-02-01T15:52:27;100260.00;;;8.00
71564;BMP180;59391;52.504;13.438;2023-02-01T15:55:18;100238.00;;;7.90
71564;BMP180;59391;52.504;13.438;2023-02-01T15:57:45;100267.00;;;7.80
71564;BMP180;59391;52.504;13.438;2023-02-01T16:00:31;100273.00;;;7.70
71564;BMP180;59391;52.504;13.438;2023-02-01T16:03:05;100246.00;;;7.60
71564;BMP180;59391;52.504;13.438;2023-02-01T16:08:15;100313.00;;;7.50
71564;BMP180;59391;52.504;13.438;2023-02-01T16:10:45;100301.00;;;7.40
71564;BMP180;59391;52.504;13.438;2023-02-01T16:13:12;100311.00;;;7.40
71564;BMP180;59391;52.504;13.438;2023-02-01T16:15:39;100288.00;;;7.30
71564;BMP180;59391;52.504;13.438;2023-02-01T16:18:06;100302.00;;;7.20
71564;BMP180;59391;52.504;13.438;2023-02-01T16:20:36;100276.00;;;7.10
71564;BMP180;59391;52.504;13.438;2023-02-01T16:23:03;100304.00;;;7.10
71564;BMP180;59391;52.504;13.438;2023-02-01T16:25:29;100301.00;;;7.00
71564;BMP180;59391;52.504;13.438;2023-02-01T16:27:55;100291.00;;;6.90
71564;BMP180;59391;52.504;13.438;2023-02-01T16:30:21;100259.00;;;6.90